Archival Weather

Chicago O'Hare International

Chicago, Illinois (KORD)

Report from: Sunday, September 10, 2023 8:51 PM CDT
Current time: Wednesday, April 24, 2024 12:59 PM CDT

Current weather – Weather history – Daily summaries
Weather forecast

Present weatherLight rain
Temperature21.7°C (71.1°F)
Dew point16.7°C (62.1°F)
Winds 8 kts (4.1 m/s, 9.2 mph) East-Southeast (110°)
Visibility10 mi. (16.1 km)
Clouds Scattered clouds 5,500 ft. (1,676 m)
Scattered clouds 7,000 ft. (2,134 m)
Ceiling: Broken clouds 11,000 ft. (3,353 m)
Broken clouds 25,000 ft. (7,620 m)
Altimeter30.09 in.Hg (1019 mB)
Precipitiation0.01 in. (0 mm)
Precip. events Rain began 1:45 AM
Relative humidity73 %
Density altitude862 ft. (263 m)
Sea-level pressure101.9 kPa (1019 mB, 30.08 in.Hg)
Remarks Automated weather observing station with precipitation discriminator
Flight conditions Visual Meteorological Conditions
Raw dataKORD 110151Z 11008KT 10SM -RA SCT055 SCT070 BKN110 BKN250 22/17 A3009 RMK AO2 RAB45 SLP186 P0001 T02170167
An error has occurred. This application may no longer respond until reloaded. Reload 🗙